sensor_id;sensor_type;location;lat;lon;timestamp;P1;durP1;ratioP1;P2;durP2;ratioP2
84891;SDS011;75154;42.072;21.394;2024-03-23T00:53:10;14.80;;;7.05;;
84891;SDS011;75154;42.072;21.394;2024-03-23T00:55:36;18.33;;;7.35;;
84891;SDS011;75154;42.072;21.394;2024-03-23T00:58:02;11.25;;;6.57;;
84891;SDS011;75154;42.072;21.394;2024-03-23T01:00:28;22.50;;;8.52;;
84891;SDS011;75154;42.072;21.394;2024-03-23T01:02:54;15.95;;;7.47;;
84891;SDS011;75154;42.072;21.394;2024-03-23T01:05:20;14.25;;;7.22;;
84891;SDS011;75154;42.072;21.394;2024-03-23T01:07:46;12.00;;;7.00;;
84891;SDS011;75154;42.072;21.394;2024-03-23T01:10:12;13.60;;;6.82;;
84891;SDS011;75154;42.072;21.394;2024-03-23T01:12:39;15.48;;;7.47;;
84891;SDS011;75154;42.072;21.394;2024-03-23T01:15:05;15.95;;;7.10;;
84891;SDS011;75154;42.072;21.394;2024-03-23T01:17:31;14.45;;;7.15;;
84891;SDS011;75154;42.072;21.394;2024-03-23T01:19:57;18.13;;;7.47;;
84891;SDS011;75154;42.072;21.394;2024-03-23T01:22:23;16.23;;;7.47;;
84891;SDS011;75154;42.072;21.394;2024-03-23T01:24:49;19.25;;;7.38;;
84891;SDS011;75154;42.072;21.394;2024-03-23T01:27:15;15.80;;;7.65;;
84891;SDS011;75154;42.072;21.394;2024-03-23T01:29:42;17.95;;;8.05;;
84891;SDS011;75154;42.072;21.394;2024-03-23T01:32:08;17.35;;;7.50;;
84891;SDS011;75154;42.072;21.394;2024-03-23T01:34:34;16.42;;;7.60;;
84891;SDS011;75154;42.072;21.394;2024-03-23T01:37:00;17.38;;;7.63;;
84891;SDS011;75154;42.072;21.394;2024-03-23T01:39:26;20.35;;;8.63;;
84891;SDS011;75154;42.072;21.394;2024-03-23T01:41:52;16.63;;;7.47;;
84891;SDS011;75154;42.072;21.394;2024-03-23T01:44:18;16.27;;;7.63;;
84891;SDS011;75154;42.072;21.394;2024-03-23T01:46:44;24.15;;;7.65;;
84891;SDS011;75154;42.072;21.394;2024-03-23T01:49:11;15.50;;;8.10;;
84891;SDS011;75154;42.072;21.394;2024-03-23T01:51:37;17.55;;;7.88;;
84891;SDS011;75154;42.072;21.394;2024-03-23T01:54:03;20.77;;;7.35;;
84891;SDS011;75154;42.072;21.394;2024-03-23T01:56:31;17.33;;;7.55;;
84891;SDS011;75154;42.072;21.394;2024-03-23T01:58:58;17.83;;;7.03;;
84891;SDS011;75154;42.072;21.394;2024-03-23T02:01:25;24.77;;;7.63;;
84891;SDS011;75154;42.072;21.394;2024-03-23T02:03:51;16.30;;;7.35;;
84891;SDS011;75154;42.072;21.394;2024-03-23T02:06:17;17.58;;;7.30;;
84891;SDS011;75154;42.072;21.394;2024-03-23T02:08:43;20.08;;;7.53;;
84891;SDS011;75154;42.072;21.394;2024-03-23T02:11:10;12.48;;;6.85;;
84891;SDS011;75154;42.072;21.394;2024-03-23T02:13:36;15.65;;;6.97;;
84891;SDS011;75154;42.072;21.394;2024-03-23T02:16:02;12.60;;;6.55;;
84891;SDS011;75154;42.072;21.394;2024-03-23T02:18:28;15.70;;;7.13;;
84891;SDS011;75154;42.072;21.394;2024-03-23T02:20:55;19.05;;;7.05;;
84891;SDS011;75154;42.072;21.394;2024-03-23T02:23:21;19.00;;;7.38;;
84891;SDS011;75154;42.072;21.394;2024-03-23T02:25:47;23.35;;;7.65;;
84891;SDS011;75154;42.072;21.394;2024-03-23T02:28:13;16.40;;;7.35;;
84891;SDS011;75154;42.072;21.394;2024-03-23T02:30:39;20.98;;;7.47;;
84891;SDS011;75154;42.072;21.394;2024-03-23T02:33:05;20.15;;;7.05;;
84891;SDS011;75154;42.072;21.394;2024-03-23T02:35:31;15.15;;;7.05;;
84891;SDS011;75154;42.072;21.394;2024-03-23T02:37:57;11.77;;;6.80;;
84891;SDS011;75154;42.072;21.394;2024-03-23T02:40:23;15.63;;;6.65;;
84891;SDS011;75154;42.072;21.394;2024-03-23T02:42:50;15.98;;;6.95;;
84891;SDS011;75154;42.072;21.394;2024-03-23T02:45:16;11.30;;;6.63;;
84891;SDS011;75154;42.072;21.394;2024-03-23T02:47:42;10.80;;;6.55;;
84891;SDS011;75154;42.072;21.394;2024-03-23T02:50:08;14.27;;;6.53;;
84891;SDS011;75154;42.072;21.394;2024-03-23T02:52:35;12.45;;;5.68;;
84891;SDS011;75154;42.072;21.394;2024-03-23T02:55:01;15.65;;;6.55;;
84891;SDS011;75154;42.072;21.394;2024-03-23T02:57:27;18.65;;;6.75;;
84891;SDS011;75154;42.072;21.394;2024-03-23T02:59:54;15.82;;;6.50;;
84891;SDS011;75154;42.072;21.394;2024-03-23T03:02:20;14.57;;;6.45;;
84891;SDS011;75154;42.072;21.394;2024-03-23T03:04:46;16.77;;;6.68;;
84891;SDS011;75154;42.072;21.394;2024-03-23T03:07:13;13.10;;;7.38;;
84891;SDS011;75154;42.072;21.394;2024-03-23T03:09:39;20.38;;;7.88;;
84891;SDS011;75154;42.072;21.394;2024-03-23T03:12:05;14.55;;;6.43;;
84891;SDS011;75154;42.072;21.394;2024-03-23T03:14:31;19.55;;;6.35;;
84891;SDS011;75154;42.072;21.394;2024-03-23T03:16:57;14.90;;;7.45;;
84891;SDS011;75154;42.072;21.394;2024-03-23T03:19:24;15.63;;;6.35;;
84891;SDS011;75154;42.072;21.394;2024-03-23T03:21:50;16.92;;;7.03;;
84891;SDS011;75154;42.072;21.394;2024-03-23T03:24:16;12.85;;;6.45;;
84891;SDS011;75154;42.072;21.394;2024-03-23T03:26:42;13.68;;;6.22;;
84891;SDS011;75154;42.072;21.394;2024-03-23T03:29:08;12.25;;;6.88;;
84891;SDS011;75154;42.072;21.394;2024-03-23T03:31:35;17.35;;;7.15;;
84891;SDS011;75154;42.072;21.394;2024-03-23T03:34:01;17.63;;;7.63;;
84891;SDS011;75154;42.072;21.394;2024-03-23T03:36:27;15.82;;;7.65;;
84891;SDS011;75154;42.072;21.394;2024-03-23T03:38:53;13.60;;;6.82;;
84891;SDS011;75154;42.072;21.394;2024-03-23T03:41:20;19.52;;;7.43;;
84891;SDS011;75154;42.072;21.394;2024-03-23T03:43:46;10.40;;;6.95;;
84891;SDS011;75154;42.072;21.394;2024-03-23T03:46:12;13.63;;;6.40;;
84891;SDS011;75154;42.072;21.394;2024-03-23T03:48:38;14.90;;;6.80;;
84891;SDS011;75154;42.072;21.394;2024-03-23T03:51:04;11.90;;;6.68;;
84891;SDS011;75154;42.072;21.394;2024-03-23T03:53:30;13.18;;;6.78;;
84891;SDS011;75154;42.072;21.394;2024-03-23T03:56:00;16.52;;;7.03;;
84891;SDS011;75154;42.072;21.394;2024-03-23T03:58:27;13.73;;;6.97;;
84891;SDS011;75154;42.072;21.394;2024-03-23T04:00:53;11.75;;;6.88;;
84891;SDS011;75154;42.072;21.394;2024-03-23T04:03:19;13.48;;;7.35;;
84891;SDS011;75154;42.072;21.394;2024-03-23T04:05:52;14.20;;;7.57;;
84891;SDS011;75154;42.072;21.394;2024-03-23T04:08:18;12.18;;;6.85;;
84891;SDS011;75154;42.072;21.394;2024-03-23T04:10:45;11.35;;;7.15;;
84891;SDS011;75154;42.072;21.394;2024-03-23T04:13:11;14.48;;;8.18;;
84891;SDS011;75154;42.072;21.394;2024-03-23T04:15:37;17.48;;;7.32;;
84891;SDS011;75154;42.072;21.394;2024-03-23T04:18:03;15.32;;;8.07;;
84891;SDS011;75154;42.072;21.394;2024-03-23T04:20:29;14.40;;;7.63;;
84891;SDS011;75154;42.072;21.394;2024-03-23T04:22:55;19.55;;;8.30;;
84891;SDS011;75154;42.072;21.394;2024-03-23T04:25:21;18.90;;;7.95;;
84891;SDS011;75154;42.072;21.394;2024-03-23T04:27:47;15.00;;;6.85;;
84891;SDS011;75154;42.072;21.394;2024-03-23T04:30:13;17.33;;;7.38;;
84891;SDS011;75154;42.072;21.394;2024-03-23T04:32:40;21.88;;;7.85;;
84891;SDS011;75154;42.072;21.394;2024-03-23T04:35:07;14.77;;;7.30;;
84891;SDS011;75154;42.072;21.394;2024-03-23T04:37:36;18.52;;;7.30;;
84891;SDS011;75154;42.072;21.394;2024-03-23T04:40:03;14.05;;;7.38;;
84891;SDS011;75154;42.072;21.394;2024-03-23T04:42:29;16.73;;;8.02;;
84891;SDS011;75154;42.072;21.394;2024-03-23T04:44:55;16.17;;;8.93;;
84891;SDS011;75154;42.072;21.394;2024-03-23T04:47:21;15.55;;;8.82;;
84891;SDS011;75154;42.072;21.394;2024-03-23T04:49:48;14.98;;;8.50;;
84891;SDS011;75154;42.072;21.394;2024-03-23T04:52:14;19.65;;;8.55;;
84891;SDS011;75154;42.072;21.394;2024-03-23T04:54:40;14.90;;;8.63;;
84891;SDS011;75154;42.072;21.394;2024-03-23T04:57:07;14.18;;;9.15;;
84891;SDS011;75154;42.072;21.394;2024-03-23T04:59:33;16.90;;;9.85;;
84891;SDS011;75154;42.072;21.394;2024-03-23T05:01:59;15.60;;;9.57;;
84891;SDS011;75154;42.072;21.394;2024-03-23T05:04:26;18.08;;;9.68;;
84891;SDS011;75154;42.072;21.394;2024-03-23T05:06:52;19.17;;;9.68;;
84891;SDS011;75154;42.072;21.394;2024-03-23T05:09:18;17.15;;;8.95;;
84891;SDS011;75154;42.072;21.394;2024-03-23T05:11:45;14.00;;;7.47;;
84891;SDS011;75154;42.072;21.394;2024-03-23T05:14:12;11.88;;;7.47;;
84891;SDS011;75154;42.072;21.394;2024-03-23T05:16:39;15.35;;;9.23;;
84891;SDS011;75154;42.072;21.394;2024-03-23T05:19:05;17.50;;;8.82;;
84891;SDS011;75154;42.072;21.394;2024-03-23T05:21:31;13.65;;;8.55;;
84891;SDS011;75154;42.072;21.394;2024-03-23T05:23:57;17.48;;;8.48;;
84891;SDS011;75154;42.072;21.394;2024-03-23T05:26:23;15.07;;;8.63;;
84891;SDS011;75154;42.072;21.394;2024-03-23T05:28:49;17.33;;;8.02;;
84891;SDS011;75154;42.072;21.394;2024-03-23T05:31:25;18.17;;;8.80;;
84891;SDS011;75154;42.072;21.394;2024-03-23T05:33:51;12.07;;;7.50;;
84891;SDS011;75154;42.072;21.394;2024-03-23T05:36:17;15.63;;;8.18;;
84891;SDS011;75154;42.072;21.394;2024-03-23T05:38:43;13.98;;;7.05;;
84891;SDS011;75154;42.072;21.394;2024-03-23T05:41:09;13.90;;;7.00;;
84891;SDS011;75154;42.072;21.394;2024-03-23T05:43:35;13.23;;;7.75;;
84891;SDS011;75154;42.072;21.394;2024-03-23T05:46:01;15.57;;;7.63;;
84891;SDS011;75154;42.072;21.394;2024-03-23T05:48:28;11.10;;;6.57;;
84891;SDS011;75154;42.072;21.394;2024-03-23T05:50:55;12.27;;;7.65;;
84891;SDS011;75154;42.072;21.394;2024-03-23T05:53:21;13.05;;;7.82;;
84891;SDS011;75154;42.072;21.394;2024-03-23T05:55:48;10.88;;;7.53;;
84891;SDS011;75154;42.072;21.394;2024-03-23T05:58:17;17.55;;;7.93;;
84891;SDS011;75154;42.072;21.394;2024-03-23T06:00:45;15.57;;;10.00;;
84891;SDS011;75154;42.072;21.394;2024-03-23T06:03:11;17.67;;;10.65;;
84891;SDS011;75154;42.072;21.394;2024-03-23T06:05:37;15.68;;;9.80;;
84891;SDS011;75154;42.072;21.394;2024-03-23T06:08:03;18.65;;;9.55;;
84891;SDS011;75154;42.072;21.394;2024-03-23T06:10:29;17.75;;;11.80;;
84891;SDS011;75154;42.072;21.394;2024-03-23T06:12:56;18.77;;;12.52;;
84891;SDS011;75154;42.072;21.394;2024-03-23T06:15:24;17.55;;;12.10;;
84891;SDS011;75154;42.072;21.394;2024-03-23T06:17:50;23.00;;;12.25;;
84891;SDS011;75154;42.072;21.394;2024-03-23T06:20:17;18.35;;;11.45;;
84891;SDS011;75154;42.072;21.394;2024-03-23T06:22:43;22.02;;;12.48;;
84891;SDS011;75154;42.072;21.394;2024-03-23T06:25:09;19.85;;;12.63;;
84891;SDS011;75154;42.072;21.394;2024-03-23T06:27:37;22.30;;;12.77;;
84891;SDS011;75154;42.072;21.394;2024-03-23T06:30:04;22.75;;;11.65;;
84891;SDS011;75154;42.072;21.394;2024-03-23T06:32:30;21.33;;;12.57;;
84891;SDS011;75154;42.072;21.394;2024-03-23T06:34:56;25.55;;;12.18;;
84891;SDS011;75154;42.072;21.394;2024-03-23T06:37:22;21.48;;;12.38;;
84891;SDS011;75154;42.072;21.394;2024-03-23T06:39:48;21.30;;;11.20;;
84891;SDS011;75154;42.072;21.394;2024-03-23T06:42:14;19.42;;;11.30;;
84891;SDS011;75154;42.072;21.394;2024-03-23T06:44:40;17.05;;;10.70;;
84891;SDS011;75154;42.072;21.394;2024-03-23T06:47:06;15.23;;;10.75;;
84891;SDS011;75154;42.072;21.394;2024-03-23T06:49:33;18.10;;;12.05;;
84891;SDS011;75154;42.072;21.394;2024-03-23T06:51:59;16.40;;;10.57;;
84891;SDS011;75154;42.072;21.394;2024-03-23T06:54:25;19.63;;;11.80;;
84891;SDS011;75154;42.072;21.394;2024-03-23T06:56:51;18.00;;;11.05;;
84891;SDS011;75154;42.072;21.394;2024-03-23T06:59:18;16.85;;;10.32;;
84891;SDS011;75154;42.072;21.394;2024-03-23T07:01:44;16.00;;;10.75;;
84891;SDS011;75154;42.072;21.394;2024-03-23T07:04:10;16.48;;;10.10;;
84891;SDS011;75154;42.072;21.394;2024-03-23T07:06:42;18.25;;;11.20;;
84891;SDS011;75154;42.072;21.394;2024-03-23T07:09:08;12.77;;;9.27;;
84891;SDS011;75154;42.072;21.394;2024-03-23T07:11:34;17.15;;;10.55;;
84891;SDS011;75154;42.072;21.394;2024-03-23T07:14:00;15.23;;;10.32;;
84891;SDS011;75154;42.072;21.394;2024-03-23T07:16:27;16.13;;;10.30;;
84891;SDS011;75154;42.072;21.394;2024-03-23T07:18:53;16.85;;;10.77;;
84891;SDS011;75154;42.072;21.394;2024-03-23T07:21:20;19.67;;;10.38;;
84891;SDS011;75154;42.072;21.394;2024-03-23T07:23:47;15.57;;;10.05;;
84891;SDS011;75154;42.072;21.394;2024-03-23T07:26:13;18.92;;;11.40;;
84891;SDS011;75154;42.072;21.394;2024-03-23T07:28:40;16.05;;;10.48;;
84891;SDS011;75154;42.072;21.394;2024-03-23T07:31:10;19.42;;;10.63;;
84891;SDS011;75154;42.072;21.394;2024-03-23T07:33:38;14.68;;;9.65;;
84891;SDS011;75154;42.072;21.394;2024-03-23T07:36:07;14.57;;;10.70;;
84891;SDS011;75154;42.072;21.394;2024-03-23T07:38:33;15.68;;;10.07;;
84891;SDS011;75154;42.072;21.394;2024-03-23T07:41:05;19.23;;;10.50;;
84891;SDS011;75154;42.072;21.394;2024-03-23T07:43:32;14.90;;;10.65;;
84891;SDS011;75154;42.072;21.394;2024-03-23T07:45:58;14.73;;;10.32;;
84891;SDS011;75154;42.072;21.394;2024-03-23T07:48:24;16.77;;;10.20;;
84891;SDS011;75154;42.072;21.394;2024-03-23T07:51:09;19.27;;;10.80;;
84891;SDS011;75154;42.072;21.394;2024-03-23T07:53:36;13.90;;;9.57;;
84891;SDS011;75154;42.072;21.394;2024-03-23T07:56:06;13.80;;;9.35;;
84891;SDS011;75154;42.072;21.394;2024-03-23T07:58:32;16.50;;;10.82;;
84891;SDS011;75154;42.072;21.394;2024-03-23T08:01:11;15.23;;;10.73;;
84891;SDS011;75154;42.072;21.394;2024-03-23T08:03:40;15.15;;;10.05;;
84891;SDS011;75154;42.072;21.394;2024-03-23T08:08:35;15.40;;;10.20;;
84891;SDS011;75154;42.072;21.394;2024-03-23T08:11:01;14.68;;;9.80;;
84891;SDS011;75154;42.072;21.394;2024-03-23T08:13:28;14.82;;;10.82;;
84891;SDS011;75154;42.072;21.394;2024-03-23T08:15:58;15.18;;;11.05;;
84891;SDS011;75154;42.072;21.394;2024-03-23T08:18:24;17.75;;;11.40;;
84891;SDS011;75154;42.072;21.394;2024-03-23T08:21:00;19.17;;;10.98;;
84891;SDS011;75154;42.072;21.394;2024-03-23T08:23:29;17.05;;;11.65;;
84891;SDS011;75154;42.072;21.394;2024-03-23T08:26:02;18.67;;;11.43;;
84891;SDS011;75154;42.072;21.394;2024-03-23T08:28:29;18.23;;;11.35;;
84891;SDS011;75154;42.072;21.394;2024-03-23T08:30:55;16.48;;;11.50;;
84891;SDS011;75154;42.072;21.394;2024-03-23T08:33:22;17.58;;;10.65;;
84891;SDS011;75154;42.072;21.394;2024-03-23T08:35:59;16.73;;;10.48;;
84891;SDS011;75154;42.072;21.394;2024-03-23T08:38:26;14.82;;;9.48;;
84891;SDS011;75154;42.072;21.394;2024-03-23T08:40:59;14.68;;;9.35;;
84891;SDS011;75154;42.072;21.394;2024-03-23T08:43:25;19.38;;;10.18;;
84891;SDS011;75154;42.072;21.394;2024-03-23T08:45:51;14.27;;;9.93;;
84891;SDS011;75154;42.072;21.394;2024-03-23T08:48:20;15.88;;;10.85;;
84891;SDS011;75154;42.072;21.394;2024-03-23T08:50:47;14.77;;;9.70;;
84891;SDS011;75154;42.072;21.394;2024-03-23T08:53:14;18.63;;;9.98;;
84891;SDS011;75154;42.072;21.394;2024-03-23T08:55:40;17.67;;;10.07;;
84891;SDS011;75154;42.072;21.394;2024-03-23T08:58:06;14.63;;;8.73;;
84891;SDS011;75154;42.072;21.394;2024-03-23T09:00:34;17.17;;;9.43;;
84891;SDS011;75154;42.072;21.394;2024-03-23T09:03:00;16.63;;;9.18;;
84891;SDS011;75154;42.072;21.394;2024-03-23T09:05:27;14.55;;;9.13;;
84891;SDS011;75154;42.072;21.394;2024-03-23T09:07:55;13.77;;;8.85;;
84891;SDS011;75154;42.072;21.394;2024-03-23T09:10:21;14.43;;;8.55;;
84891;SDS011;75154;42.072;21.394;2024-03-23T09:12:48;11.68;;;8.27;;
84891;SDS011;75154;42.072;21.394;2024-03-23T09:15:14;14.50;;;8.70;;
84891;SDS011;75154;42.072;21.394;2024-03-23T09:17:40;12.20;;;8.73;;
84891;SDS011;75154;42.072;21.394;2024-03-23T09:20:06;13.45;;;8.95;;
84891;SDS011;75154;42.072;21.394;2024-03-23T09:22:33;16.98;;;8.77;;
84891;SDS011;75154;42.072;21.394;2024-03-23T09:25:00;15.38;;;8.50;;
84891;SDS011;75154;42.072;21.394;2024-03-23T09:27:26;14.00;;;9.20;;
84891;SDS011;75154;42.072;21.394;2024-03-23T09:29:52;14.25;;;9.38;;
84891;SDS011;75154;42.072;21.394;2024-03-23T09:32:18;12.98;;;8.50;;
84891;SDS011;75154;42.072;21.394;2024-03-23T09:34:44;13.50;;;7.88;;
84891;SDS011;75154;42.072;21.394;2024-03-23T09:37:10;17.85;;;9.00;;
84891;SDS011;75154;42.072;21.394;2024-03-23T09:39:36;13.32;;;8.70;;
84891;SDS011;75154;42.072;21.394;2024-03-23T09:42:02;15.20;;;8.90;;
84891;SDS011;75154;42.072;21.394;2024-03-23T09:44:29;11.60;;;8.48;;
84891;SDS011;75154;42.072;21.394;2024-03-23T09:46:55;15.25;;;8.40;;
84891;SDS011;75154;42.072;21.394;2024-03-23T09:49:22;12.32;;;8.27;;
84891;SDS011;75154;42.072;21.394;2024-03-23T09:51:48;12.93;;;8.05;;
84891;SDS011;75154;42.072;21.394;2024-03-23T09:54:14;11.77;;;7.65;;
84891;SDS011;75154;42.072;21.394;2024-03-23T09:56:40;12.30;;;8.80;;
84891;SDS011;75154;42.072;21.394;2024-03-23T09:59:06;15.77;;;8.68;;
84891;SDS011;75154;42.072;21.394;2024-03-23T10:01:32;13.05;;;9.15;;
84891;SDS011;75154;42.072;21.394;2024-03-23T10:03:58;12.10;;;7.70;;
84891;SDS011;75154;42.072;21.394;2024-03-23T10:06:25;13.20;;;8.77;;
84891;SDS011;75154;42.072;21.394;2024-03-23T10:08:51;11.55;;;8.88;;
84891;SDS011;75154;42.072;21.394;2024-03-23T10:11:19;15.20;;;8.98;;
84891;SDS011;75154;42.072;21.394;2024-03-23T10:13:46;12.40;;;7.70;;
84891;SDS011;75154;42.072;21.394;2024-03-23T10:16:12;14.07;;;8.60;;
84891;SDS011;75154;42.072;21.394;2024-03-23T10:18:46;11.88;;;8.70;;
84891;SDS011;75154;42.072;21.394;2024-03-23T10:21:13;12.55;;;9.15;;
84891;SDS011;75154;42.072;21.394;2024-03-23T10:23:41;13.63;;;8.75;;
84891;SDS011;75154;42.072;21.394;2024-03-23T10:26:25;14.52;;;8.98;;
84891;SDS011;75154;42.072;21.394;2024-03-23T10:31:17;17.05;;;8.73;;
84891;SDS011;75154;42.072;21.394;2024-03-23T10:33:47;11.35;;;8.88;;
84891;SDS011;75154;42.072;21.394;2024-03-23T10:36:13;13.40;;;8.65;;
84891;SDS011;75154;42.072;21.394;2024-03-23T10:38:43;18.30;;;9.45;;
84891;SDS011;75154;42.072;21.394;2024-03-23T10:41:12;12.18;;;9.05;;
84891;SDS011;75154;42.072;21.394;2024-03-23T10:43:38;13.05;;;9.30;;
84891;SDS011;75154;42.072;21.394;2024-03-23T10:46:04;15.13;;;9.07;;
84891;SDS011;75154;42.072;21.394;2024-03-23T10:48:31;15.15;;;8.93;;
84891;SDS011;75154;42.072;21.394;2024-03-23T10:50:58;14.35;;;9.20;;
84891;SDS011;75154;42.072;21.394;2024-03-23T10:53:27;11.13;;;8.40;;
84891;SDS011;75154;42.072;21.394;2024-03-23T10:55:54;12.50;;;8.48;;
84891;SDS011;75154;42.072;21.394;2024-03-23T10:58:25;11.65;;;8.38;;
84891;SDS011;75154;42.072;21.394;2024-03-23T11:00:52;10.95;;;8.38;;
84891;SDS011;75154;42.072;21.394;2024-03-23T11:05:58;14.57;;;8.25;;
84891;SDS011;75154;42.072;21.394;2024-03-23T11:08:37;12.60;;;7.80;;
84891;SDS011;75154;42.072;21.394;2024-03-23T11:11:19;12.50;;;7.60;;
84891;SDS011;75154;42.072;21.394;2024-03-23T11:13:48;11.20;;;7.47;;
84891;SDS011;75154;42.072;21.394;2024-03-23T11:16:27;11.93;;;8.10;;
84891;SDS011;75154;42.072;21.394;2024-03-23T11:21:51;10.35;;;7.32;;
84891;SDS011;75154;42.072;21.394;2024-03-23T11:24:21;11.43;;;7.28;;
84891;SDS011;75154;42.072;21.394;2024-03-23T11:26:48;8.65;;;5.63;;
84891;SDS011;75154;42.072;21.394;2024-03-23T11:29:14;9.80;;;6.72;;
84891;SDS011;75154;42.072;21.394;2024-03-23T11:31:50;11.00;;;5.93;;
84891;SDS011;75154;42.072;21.394;2024-03-23T11:34:16;10.70;;;6.80;;
84891;SDS011;75154;42.072;21.394;2024-03-23T11:36:46;12.10;;;7.65;;
84891;SDS011;75154;42.072;21.394;2024-03-23T11:41:45;9.30;;;6.57;;
84891;SDS011;75154;42.072;21.394;2024-03-23T11:44:30;9.73;;;6.65;;
84891;SDS011;75154;42.072;21.394;2024-03-23T11:47:07;10.70;;;6.75;;
84891;SDS011;75154;42.072;21.394;2024-03-23T11:49:33;9.43;;;6.03;;
84891;SDS011;75154;42.072;21.394;2024-03-23T11:52:05;8.80;;;6.47;;
84891;SDS011;75154;42.072;21.394;2024-03-23T11:54:33;8.18;;;5.97;;
84891;SDS011;75154;42.072;21.394;2024-03-23T11:57:02;9.90;;;5.88;;
84891;SDS011;75154;42.072;21.394;2024-03-23T11:59:32;8.52;;;5.57;;
84891;SDS011;75154;42.072;21.394;2024-03-23T12:01:59;12.98;;;6.20;;
84891;SDS011;75154;42.072;21.394;2024-03-23T12:04:28;9.00;;;6.30;;
84891;SDS011;75154;42.072;21.394;2024-03-23T12:09:39;12.00;;;5.90;;
84891;SDS011;75154;42.072;21.394;2024-03-23T12:12:09;7.28;;;5.50;;
84891;SDS011;75154;42.072;21.394;2024-03-23T12:14:35;7.22;;;5.47;;
84891;SDS011;75154;42.072;21.394;2024-03-23T12:17:08;8.95;;;5.35;;
84891;SDS011;75154;42.072;21.394;2024-03-23T12:19:34;7.85;;;5.38;;
84891;SDS011;75154;42.072;21.394;2024-03-23T12:22:00;8.02;;;5.22;;
84891;SDS011;75154;42.072;21.394;2024-03-23T12:24:28;7.70;;;5.55;;
84891;SDS011;75154;42.072;21.394;2024-03-23T12:26:55;7.15;;;5.25;;
84891;SDS011;75154;42.072;21.394;2024-03-23T12:29:21;7.75;;;5.07;;
84891;SDS011;75154;42.072;21.394;2024-03-23T12:31:47;6.45;;;4.82;;
84891;SDS011;75154;42.072;21.394;2024-03-23T12:34:13;6.80;;;4.43;;
84891;SDS011;75154;42.072;21.394;2024-03-23T12:36:39;8.02;;;5.30;;
84891;SDS011;75154;42.072;21.394;2024-03-23T12:39:05;9.30;;;4.97;;
84891;SDS011;75154;42.072;21.394;2024-03-23T12:41:32;5.93;;;4.80;;
84891;SDS011;75154;42.072;21.394;2024-03-23T12:43:58;7.07;;;4.78;;
84891;SDS011;75154;42.072;21.394;2024-03-23T12:46:24;6.07;;;4.45;;
84891;SDS011;75154;42.072;21.394;2024-03-23T12:48:50;6.07;;;4.22;;
84891;SDS011;75154;42.072;21.394;2024-03-23T12:51:16;5.40;;;4.20;;
84891;SDS011;75154;42.072;21.394;2024-03-23T12:53:42;5.97;;;4.30;;
84891;SDS011;75154;42.072;21.394;2024-03-23T12:56:11;7.00;;;4.38;;
84891;SDS011;75154;42.072;21.394;2024-03-23T12:58:37;5.25;;;4.18;;
84891;SDS011;75154;42.072;21.394;2024-03-23T13:01:03;7.35;;;4.00;;
84891;SDS011;75154;42.072;21.394;2024-03-23T13:03:31;6.85;;;4.13;;
84891;SDS011;75154;42.072;21.394;2024-03-23T13:05:57;6.30;;;4.15;;
84891;SDS011;75154;42.072;21.394;2024-03-23T13:08:23;6.40;;;4.07;;
84891;SDS011;75154;42.072;21.394;2024-03-23T13:10:52;7.93;;;4.30;;
84891;SDS011;75154;42.072;21.394;2024-03-23T13:13:18;6.68;;;4.43;;
84891;SDS011;75154;42.072;21.394;2024-03-23T13:15:50;5.53;;;4.05;;
84891;SDS011;75154;42.072;21.394;2024-03-23T13:18:17;8.15;;;4.00;;
84891;SDS011;75154;42.072;21.394;2024-03-23T13:20:43;5.88;;;4.25;;
84891;SDS011;75154;42.072;21.394;2024-03-23T13:23:09;7.78;;;4.85;;
84891;SDS011;75154;42.072;21.394;2024-03-23T13:25:35;6.07;;;4.53;;
84891;SDS011;75154;42.072;21.394;2024-03-23T13:28:02;7.13;;;4.30;;
84891;SDS011;75154;42.072;21.394;2024-03-23T13:30:28;6.75;;;4.22;;
84891;SDS011;75154;42.072;21.394;2024-03-23T13:32:55;6.80;;;4.43;;
84891;SDS011;75154;42.072;21.394;2024-03-23T13:35:21;7.30;;;4.20;;
84891;SDS011;75154;42.072;21.394;2024-03-23T13:37:47;7.13;;;4.45;;
84891;SDS011;75154;42.072;21.394;2024-03-23T13:40:13;5.68;;;4.22;;
84891;SDS011;75154;42.072;21.394;2024-03-23T13:42:40;7.53;;;4.53;;
84891;SDS011;75154;42.072;21.394;2024-03-23T13:45:06;8.50;;;4.85;;
84891;SDS011;75154;42.072;21.394;2024-03-23T13:47:32;6.30;;;4.40;;
84891;SDS011;75154;42.072;21.394;2024-03-23T13:49:58;5.72;;;4.13;;
84891;SDS011;75154;42.072;21.394;2024-03-23T13:52:24;6.95;;;4.07;;
84891;SDS011;75154;42.072;21.394;2024-03-23T13:54:51;5.75;;;4.05;;
84891;SDS011;75154;42.072;21.394;2024-03-23T13:57:17;8.60;;;4.38;;
84891;SDS011;75154;42.072;21.394;2024-03-23T13:59:46;6.13;;;4.45;;
84891;SDS011;75154;42.072;21.394;2024-03-23T14:02:14;6.20;;;4.30;;
84891;SDS011;75154;42.072;21.394;2024-03-23T14:04:40;7.82;;;4.18;;
84891;SDS011;75154;42.072;21.394;2024-03-23T14:07:06;6.53;;;4.07;;
84891;SDS011;75154;42.072;21.394;2024-03-23T14:09:35;7.15;;;4.55;;
84891;SDS011;75154;42.072;21.394;2024-03-23T14:12:01;7.20;;;4.75;;
84891;SDS011;75154;42.072;21.394;2024-03-23T14:14:28;9.85;;;4.65;;
84891;SDS011;75154;42.072;21.394;2024-03-23T14:16:54;9.90;;;4.57;;
84891;SDS011;75154;42.072;21.394;2024-03-23T14:19:20;8.40;;;4.72;;
84891;SDS011;75154;42.072;21.394;2024-03-23T14:21:46;7.10;;;4.65;;
84891;SDS011;75154;42.072;21.394;2024-03-23T14:24:12;7.90;;;4.95;;
84891;SDS011;75154;42.072;21.394;2024-03-23T14:26:38;6.63;;;4.30;;
84891;SDS011;75154;42.072;21.394;2024-03-23T14:29:06;7.35;;;4.65;;
84891;SDS011;75154;42.072;21.394;2024-03-23T14:31:34;5.60;;;4.32;;
84891;SDS011;75154;42.072;21.394;2024-03-23T14:34:00;9.13;;;4.95;;
84891;SDS011;75154;42.072;21.394;2024-03-23T14:36:26;7.60;;;4.30;;
84891;SDS011;75154;42.072;21.394;2024-03-23T14:38:52;8.07;;;4.13;;
84891;SDS011;75154;42.072;21.394;2024-03-23T14:41:18;7.50;;;4.20;;
84891;SDS011;75154;42.072;21.394;2024-03-23T14:43:44;7.43;;;4.18;;
84891;SDS011;75154;42.072;21.394;2024-03-23T14:46:13;6.53;;;4.55;;
84891;SDS011;75154;42.072;21.394;2024-03-23T14:48:41;5.65;;;4.20;;
84891;SDS011;75154;42.072;21.394;2024-03-23T14:51:08;6.60;;;4.63;;
84891;SDS011;75154;42.072;21.394;2024-03-23T14:53:35;7.50;;;4.38;;
84891;SDS011;75154;42.072;21.394;2024-03-23T14:56:01;5.88;;;4.50;;
84891;SDS011;75154;42.072;21.394;2024-03-23T14:58:28;7.53;;;4.45;;
84891;SDS011;75154;42.072;21.394;2024-03-23T15:01:02;5.65;;;4.07;;
84891;SDS011;75154;42.072;21.394;2024-03-23T15:03:28;7.03;;;4.75;;
84891;SDS011;75154;42.072;21.394;2024-03-23T15:05:55;7.28;;;4.20;;
84891;SDS011;75154;42.072;21.394;2024-03-23T15:08:22;7.30;;;4.47;;
84891;SDS011;75154;42.072;21.394;2024-03-23T15:10:48;6.18;;;4.55;;
84891;SDS011;75154;42.072;21.394;2024-03-23T15:13:14;5.97;;;4.45;;
84891;SDS011;75154;42.072;21.394;2024-03-23T15:15:40;7.93;;;4.55;;
84891;SDS011;75154;42.072;21.394;2024-03-23T15:18:12;5.78;;;4.40;;
84891;SDS011;75154;42.072;21.394;2024-03-23T15:20:40;5.50;;;4.15;;
84891;SDS011;75154;42.072;21.394;2024-03-23T15:23:06;6.25;;;4.28;;
84891;SDS011;75154;42.072;21.394;2024-03-23T15:25:33;12.07;;;4.70;;
84891;SDS011;75154;42.072;21.394;2024-03-23T15:27:59;10.15;;;4.38;;
84891;SDS011;75154;42.072;21.394;2024-03-23T15:30:25;6.70;;;4.22;;